Enter the Airport ICAO Code

Search by Airport or City

Current Weather

LEAS | Asturias Airport (Oviedo Airport)

Oviedo, Asturias, Spain

Last Update 24 Minutes Ago

Rain, Fog Banks

Temperature of 09 ºC

Light Winds from SouthEast

Temperature

09 ºC

Dew Point Temperature

08 ºC

Relative Humidity

93.47 %

Wind Direction

SouthEast (150º, Without Significant Variations)

Wind Velocity

4 km/h (02 kt)

Gusts

None

Visibility

Reduced to 5.0 Kilometers

Sea Level Pressure

0999 hPa (Hectopascals)

Layers of Clouds

30% to 60% of Sky Covered from 610 mts (2000 ft) Above Ground Level.

60% to 90% of Sky Covered from 1219 mts (4000 ft) Above Ground Level.

METAR LEAS 160800Z 15002KT 5000 2000E RA BCFG SCT020 BKN040 09/08 Q0999 NOSIG

Weather Forecast

LEAS | Asturias Airport (Oviedo Airport)

Oviedo, Asturias, Spain

Forecast valid for the next 19 Hours

From now on it is expected:

Moderate Winds from NorthWest

From now on it is expected 13 hours with intermittent periods of:

Light Rain, Mist

Maximum Temperature

11 ºC in 6 Hours

Minimum Temperature

No Data

TAF LEAS 160413Z 1604/1703 15005KT 8000 RA FEW015 BKN020 TX11/1614Z TN08/1607Z BECMG 1606/1608 33010KT TEMPO 1606/1621 3000 -RA BR BKN005 BKN010